createdAt,value
2018-12-21T00:00:55.508Z,101557.64
2018-12-21T00:05:40.729Z,101556.48
2018-12-21T00:10:25.755Z,101562.45
2018-12-21T00:15:11.075Z,101559.59
2018-12-21T00:19:57.010Z,101556.15
2018-12-21T00:24:42.383Z,101561.69
2018-12-21T00:29:27.285Z,101561.30
2018-12-21T00:34:18.542Z,101556.38
2018-12-21T00:39:08.125Z,101549.09
2018-12-21T00:44:04.933Z,101536.48
2018-12-21T00:48:54.124Z,101537.00
2018-12-21T00:53:38.471Z,101532.23
2018-12-21T00:58:24.267Z,101527.74
2018-12-21T01:03:10.114Z,101527.58
2018-12-21T01:07:55.937Z,101530.01
2018-12-21T01:12:40.693Z,101508.75
2018-12-21T01:17:26.562Z,101512.19
2018-12-21T01:22:11.084Z,101517.39
2018-12-21T01:26:56.940Z,101515.92
2018-12-21T01:31:41.437Z,101511.91
2018-12-21T01:36:27.147Z,101513.56
2018-12-21T01:41:12.607Z,101517.09
2018-12-21T01:45:57.923Z,101520.14
2018-12-21T01:50:43.979Z,101523.08
2018-12-21T01:55:29.208Z,101521.66
2018-12-21T02:00:14.065Z,101506.87
2018-12-21T02:04:59.295Z,101508.80
2018-12-21T02:09:45.903Z,101495.20
2018-12-21T02:14:31.152Z,101509.70
2018-12-21T02:19:16.124Z,101520.28
2018-12-21T02:24:01.588Z,101519.11
2018-12-21T02:28:47.521Z,101502.58
2018-12-21T02:33:32.474Z,101502.55
2018-12-21T02:38:17.864Z,101513.86
2018-12-21T02:43:02.420Z,101506.91
2018-12-21T02:47:51.141Z,101513.42
2018-12-21T02:52:36.123Z,101509.27
2018-12-21T02:57:22.413Z,101506.05
2018-12-21T03:02:06.965Z,101497.55
2018-12-21T03:06:52.861Z,101504.00
2018-12-21T03:11:38.917Z,101505.82
2018-12-21T03:16:24.598Z,101499.30
2018-12-21T03:21:09.664Z,101489.73
2018-12-21T03:25:55.375Z,101475.75
2018-12-21T03:30:39.585Z,101484.50
2018-12-21T03:35:25.516Z,101509.88
2018-12-21T03:40:11.877Z,101507.75
2018-12-21T03:44:57.140Z,101516.23
2018-12-21T03:49:41.619Z,101516.45
2018-12-21T03:54:27.508Z,101512.86
2018-12-21T03:59:12.751Z,101519.91
2018-12-21T04:03:58.762Z,101513.55
2018-12-21T04:08:43.649Z,101520.85
2018-12-21T04:13:28.919Z,101521.92
2018-12-21T04:18:13.134Z,101522.42
2018-12-21T04:22:58.921Z,101525.34
2018-12-21T04:27:45.486Z,101519.17
2018-12-21T04:32:30.634Z,101506.77
2018-12-21T04:37:16.041Z,101519.92
2018-12-21T04:42:01.459Z,101532.14
2018-12-21T04:46:48.189Z,101525.13
2018-12-21T04:51:32.945Z,101524.05
2018-12-21T04:56:18.720Z,101520.14
2018-12-21T05:01:05.496Z,101515.77
2018-12-21T05:05:50.729Z,101511.23
2018-12-21T05:10:36.609Z,101510.38
2018-12-21T05:15:21.439Z,101500.89
2018-12-21T05:20:07.141Z,101509.02
2018-12-21T05:24:51.481Z,101520.20
2018-12-21T05:29:39.566Z,101516.17
2018-12-21T05:34:25.325Z,101514.77
2018-12-21T05:39:11.110Z,101511.94
2018-12-21T05:43:56.280Z,101515.03
2018-12-21T05:48:41.228Z,101509.34
2018-12-21T05:53:25.461Z,101521.75
2018-12-21T05:58:12.447Z,101537.54
2018-12-21T06:02:57.968Z,101535.39
2018-12-21T06:07:42.289Z,101523.48
2018-12-21T06:12:27.812Z,101539.29
2018-12-21T06:17:13.160Z,101523.61
2018-12-21T06:21:59.939Z,101539.97
2018-12-21T06:26:44.886Z,101531.02
2018-12-21T06:31:29.353Z,101528.26
2018-12-21T06:36:14.606Z,101534.83
2018-12-21T06:41:01.154Z,101536.05
2018-12-21T06:45:48.587Z,101543.55
2018-12-21T06:50:35.300Z,101551.34
2018-12-21T06:55:19.563Z,101545.80
2018-12-21T07:00:07.408Z,101552.78
2018-12-21T07:04:52.208Z,101554.87
2018-12-21T07:09:40.728Z,101556.73
2018-12-21T07:14:26.663Z,101570.97
2018-12-21T07:19:12.743Z,101575.37
2018-12-21T07:23:58.617Z,101568.73
2018-12-21T07:28:43.236Z,101572.45
2018-12-21T07:33:29.068Z,101567.89
2018-12-21T07:38:14.844Z,101564.77
2018-12-21T07:43:00.125Z,101549.44
2018-12-21T07:47:46.030Z,101557.69
2018-12-21T07:52:31.505Z,101561.56
2018-12-21T07:57:18.425Z,101551.78
2018-12-21T08:02:03.474Z,101547.05
2018-12-21T08:06:49.168Z,101551.59
2018-12-21T08:11:34.361Z,101547.50
2018-12-21T08:16:19.781Z,101536.03
2018-12-21T08:21:05.676Z,101536.91
2018-12-21T08:25:51.661Z,101548.19
2018-12-21T08:30:37.711Z,101542.84
2018-12-21T08:35:21.895Z,101540.26
2018-12-21T08:40:09.677Z,101526.56
2018-12-21T08:44:55.480Z,101532.06
2018-12-21T08:49:40.873Z,101536.23
2018-12-21T08:54:25.566Z,101528.39
2018-12-21T08:59:11.376Z,101520.72
2018-12-21T09:03:57.082Z,101512.07
2018-12-21T09:08:42.440Z,101499.98
2018-12-21T09:13:27.332Z,101484.75
2018-12-21T09:18:12.604Z,101492.14
2018-12-21T09:22:57.917Z,101474.16
2018-12-21T09:27:43.884Z,101473.06
2018-12-21T09:32:29.401Z,101474.47
2018-12-21T09:37:18.019Z,101469.33
2018-12-21T09:42:02.319Z,101449.21
2018-12-21T09:46:47.116Z,101440.14
2018-12-21T09:51:32.465Z,101429.11
2018-12-21T09:56:17.443Z,101410.89
2018-12-21T10:01:03.299Z,101388.53
2018-12-21T10:05:47.375Z,101372.23
2018-12-21T10:10:32.169Z,101358.52
2018-12-21T10:15:17.985Z,101338.24
2018-12-21T10:20:03.384Z,101325.05
2018-12-21T10:24:47.948Z,101336.88
2018-12-21T10:29:36.984Z,101339.61
2018-12-21T10:34:21.207Z,101341.03
2018-12-21T10:39:09.489Z,101339.40
2018-12-21T10:43:53.797Z,101347.52
2018-12-21T10:48:39.930Z,101326.09
2018-12-21T10:53:25.223Z,101349.34
2018-12-21T10:58:17.066Z,101334.75
2018-12-21T11:03:02.330Z,101316.20
2018-12-21T11:07:46.908Z,101306.38
2018-12-21T11:12:32.617Z,101310.41
2018-12-21T11:17:16.714Z,101302.08
2018-12-21T11:22:03.041Z,101303.07
2018-12-21T11:26:48.440Z,101293.14
2018-12-21T11:31:34.386Z,101278.16
2018-12-21T11:36:19.564Z,101270.91
2018-12-21T11:41:05.016Z,101276.02
2018-12-21T11:45:50.524Z,101270.09
2018-12-21T11:50:37.185Z,101262.62
2018-12-21T11:55:23.036Z,101259.11
2018-12-21T12:00:10.095Z,101262.14
2018-12-21T12:04:54.277Z,101278.39
2018-12-21T12:09:38.852Z,101270.77
2018-12-21T12:14:24.324Z,101284.47
2018-12-21T12:19:09.325Z,101270.33
2018-12-21T12:23:55.180Z,101276.33
2018-12-21T12:28:39.783Z,101273.58
2018-12-21T12:33:25.916Z,101270.99
2018-12-21T12:38:10.081Z,101264.37
2018-12-21T12:42:54.515Z,101266.70
2018-12-21T12:47:40.453Z,101274.85
2018-12-21T12:52:25.664Z,101272.50
2018-12-21T12:57:14.894Z,101264.53
2018-12-21T13:01:59.334Z,101258.20
2018-12-21T13:06:45.263Z,101265.66
2018-12-21T13:11:29.818Z,101259.41
2018-12-21T13:16:16.172Z,101253.22
2018-12-21T13:21:00.480Z,101264.77
2018-12-21T13:25:47.326Z,101280.50
2018-12-21T13:30:32.662Z,101273.91
2018-12-21T13:35:17.222Z,101289.17
2018-12-21T13:40:03.806Z,101286.37
2018-12-21T13:44:49.007Z,101277.86
2018-12-21T13:49:33.557Z,101292.19
2018-12-21T13:59:13.660Z,101277.09
2018-12-21T14:03:59.707Z,101280.97
2018-12-21T14:08:45.265Z,101295.27
2018-12-21T14:13:31.202Z,101282.11
2018-12-21T14:18:16.112Z,101290.84
2018-12-21T14:23:01.573Z,101296.03
2018-12-21T14:27:46.370Z,101305.09
2018-12-21T14:32:32.253Z,101291.61
2018-12-21T14:37:16.684Z,101299.06
2018-12-21T14:42:02.596Z,101288.44
2018-12-21T14:46:48.068Z,101280.50
2018-12-21T14:51:34.510Z,101285.73
2018-12-21T14:56:19.729Z,101281.11
2018-12-21T15:05:55.693Z,101274.21
2018-12-21T15:10:41.318Z,101273.05
2018-12-21T15:15:25.825Z,101274.77
2018-12-21T15:20:12.298Z,101266.77
2018-12-21T15:24:56.979Z,101277.56
2018-12-21T15:29:42.628Z,101294.84
2018-12-21T15:34:27.754Z,101289.29
2018-12-21T15:39:14.198Z,101283.89
2018-12-21T15:43:59.672Z,101303.72
2018-12-21T15:48:45.250Z,101301.85
2018-12-21T15:53:30.128Z,101311.55
2018-12-21T15:58:15.087Z,101318.75
2018-12-21T16:03:01.017Z,101325.22
2018-12-21T16:07:45.734Z,101318.15
2018-12-21T16:12:31.644Z,101335.39
2018-12-21T16:17:17.089Z,101308.33
2018-12-21T16:22:03.046Z,101303.22
2018-12-21T16:26:48.278Z,101312.20
2018-12-21T16:31:34.197Z,101292.86
2018-12-21T16:36:19.459Z,101314.42
2018-12-21T16:41:04.407Z,101293.96
2018-12-21T16:45:53.387Z,101293.61
2018-12-21T16:50:39.037Z,101291.32
2018-12-21T16:55:25.732Z,101305.61
2018-12-21T17:00:12.996Z,101294.63
2018-12-21T17:04:59.525Z,101271.86
2018-12-21T17:09:43.869Z,101280.14
2018-12-21T17:14:29.768Z,101286.00
2018-12-21T17:19:18.843Z,101292.13
2018-12-21T17:24:03.796Z,101290.84
2018-12-21T17:28:50.164Z,101276.00
2018-12-21T17:33:35.452Z,101266.92
2018-12-21T17:38:20.586Z,101269.62
2018-12-21T17:43:05.521Z,101279.67
2018-12-21T17:47:53.901Z,101278.91
2018-12-21T17:52:39.222Z,101269.27
2018-12-21T17:57:24.742Z,101251.66
2018-12-21T18:02:10.155Z,101246.25
2018-12-21T18:06:56.653Z,101242.93
2018-12-21T18:11:42.318Z,101246.15
2018-12-21T18:16:29.170Z,101250.56
2018-12-21T18:21:16.965Z,101237.48
2018-12-21T18:26:07.117Z,101235.14
2018-12-21T18:30:56.590Z,101222.59
2018-12-21T18:35:41.762Z,101220.98
2018-12-21T18:40:28.246Z,101210.97
2018-12-21T18:45:14.002Z,101220.53
2018-12-21T18:49:59.560Z,101218.06
2018-12-21T18:54:46.382Z,101214.82
2018-12-21T18:59:31.648Z,101205.95
2018-12-21T19:04:16.822Z,101199.31
2018-12-21T19:09:04.029Z,101220.00
2018-12-21T19:13:48.204Z,101221.44
2018-12-21T19:18:32.908Z,101223.58
2018-12-21T19:23:19.194Z,101196.91
2018-12-21T19:28:03.818Z,101190.50
2018-12-21T19:32:50.512Z,101186.47
2018-12-21T19:37:36.742Z,101189.50
2018-12-21T19:42:24.647Z,101201.45
2018-12-21T19:47:10.877Z,101178.79
2018-12-21T19:51:57.768Z,101173.62
2018-12-21T19:57:12.023Z,101177.72
2018-12-21T20:01:57.528Z,101183.59
2018-12-21T20:06:48.484Z,101182.61
2018-12-21T20:11:32.976Z,101175.23
2018-12-21T20:16:17.387Z,101167.38
2018-12-21T20:21:02.713Z,101167.34
2018-12-21T20:25:50.970Z,101170.27
2018-12-21T20:30:35.610Z,101152.53
2018-12-21T20:35:24.595Z,101155.56
2018-12-21T20:40:11.690Z,101148.12
2018-12-21T20:44:57.204Z,101145.34
2018-12-21T20:49:48.676Z,101142.26
2018-12-21T20:54:34.244Z,101145.69
2018-12-21T20:59:22.413Z,101147.15
2018-12-21T21:04:07.128Z,101142.30
2018-12-21T21:08:53.082Z,101140.65
2018-12-21T21:13:37.375Z,101130.17
2018-12-21T21:18:26.938Z,101125.22
2018-12-21T21:23:11.717Z,101120.53
2018-12-21T21:27:58.179Z,101109.35
2018-12-21T21:32:43.529Z,101116.34
2018-12-21T21:37:28.852Z,101123.84
2018-12-21T21:42:13.488Z,101126.70
2018-12-21T21:46:59.402Z,101124.16
2018-12-21T21:51:43.818Z,101126.05
2018-12-21T21:56:30.293Z,101119.02
2018-12-21T22:01:15.559Z,101106.32
2018-12-21T22:05:59.941Z,101087.74
2018-12-21T22:10:44.607Z,101084.27
2018-12-21T22:15:30.341Z,101088.77
2018-12-21T22:20:15.385Z,101065.38
2018-12-21T22:25:00.921Z,101068.09
2018-12-21T22:29:45.602Z,101068.03
2018-12-21T22:34:31.097Z,101072.42
2018-12-21T22:39:17.006Z,101070.02
2018-12-21T22:44:01.221Z,101079.55
2018-12-21T22:48:45.436Z,101075.19
2018-12-21T22:53:30.197Z,101076.75
2018-12-21T22:58:16.871Z,101075.66
2018-12-21T23:03:01.152Z,101072.69
2018-12-21T23:07:46.622Z,101066.78
2018-12-21T23:12:31.221Z,101061.59
2018-12-21T23:17:17.220Z,101054.85
2018-12-21T23:22:02.469Z,101050.09
2018-12-21T23:26:51.664Z,101043.28
2018-12-21T23:31:36.101Z,101035.02
2018-12-21T23:36:22.079Z,101032.30
2018-12-21T23:41:07.325Z,101041.47
2018-12-21T23:45:51.821Z,101034.20
2018-12-21T23:50:37.620Z,101029.69
2018-12-21T23:55:22.059Z,101034.91
